South Orange, New Jersey
Current Conditions -  °F | °C
As of 8:51 AM on Saturday 20 Dec 2014 (Local Time) from KEWR Reporting Station
Overcast Overcast  
Wind Chill: 26°   Ceiling: 2700
Heat Index: 32°   Visibility: 10mi
Dew Point: 21°   Wind: 7mph
Humidity: 64%   Direction: 360°N
Pressure: 30.29"   Gusts: NA
Location:  40.75°N, 74.26°W
Report Text: KEWR 201351Z 36006KT 10SM OVC027 00/M06 A3029 RMK AO2 SLP256 T00001061
Loading
Personal Weather Stations






























Interactive Weather Map New forecast layout! Learn more

10-Day Weather Forecast

Advertisements
Track Severe Weather on mobile